sensor_id;sensor_type;location;lat;lon;timestamp;P1;durP1;ratioP1;P2;durP2;ratioP2
487;SDS011;16586;48.976;9.584;2023-02-28T00:00:39;168.93;;;160.82;;
487;SDS011;16586;48.976;9.584;2023-02-28T00:03:06;220.43;;;209.88;;
487;SDS011;16586;48.976;9.584;2023-02-28T00:05:34;195.10;;;185.75;;
487;SDS011;16586;48.976;9.584;2023-02-28T00:08:01;203.85;;;194.10;;
487;SDS011;16586;48.976;9.584;2023-02-28T00:10:28;212.52;;;202.32;;
487;SDS011;16586;48.976;9.584;2023-02-28T00:12:58;213.15;;;202.95;;
487;SDS011;16586;48.976;9.584;2023-02-28T00:15:26;221.35;;;210.75;;
487;SDS011;16586;48.976;9.584;2023-02-28T00:17:53;209.60;;;199.57;;
487;SDS011;16586;48.976;9.584;2023-02-28T00:20:20;229.82;;;218.82;;
487;SDS011;16586;48.976;9.584;2023-02-28T00:22:48;231.48;;;220.40;;
487;SDS011;16586;48.976;9.584;2023-02-28T00:25:17;204.63;;;194.82;;
487;SDS011;16586;48.976;9.584;2023-02-28T00:27:47;208.07;;;198.13;;
487;SDS011;16586;48.976;9.584;2023-02-28T00:30:16;182.80;;;174.05;;
487;SDS011;16586;48.976;9.584;2023-02-28T00:32:44;181.85;;;173.15;;
487;SDS011;16586;48.976;9.584;2023-02-28T00:35:11;186.87;;;177.93;;
487;SDS011;16586;48.976;9.584;2023-02-28T00:37:38;228.13;;;217.20;;
487;SDS011;16586;48.976;9.584;2023-02-28T00:40:07;203.02;;;193.27;;
487;SDS011;16586;48.976;9.584;2023-02-28T00:42:37;206.32;;;196.43;;
487;SDS011;16586;48.976;9.584;2023-02-28T00:45:04;189.35;;;180.25;;
487;SDS011;16586;48.976;9.584;2023-02-28T00:47:32;157.48;;;149.93;;
487;SDS011;16586;48.976;9.584;2023-02-28T00:49:59;161.23;;;153.50;;
487;SDS011;16586;48.976;9.584;2023-02-28T00:52:25;186.00;;;177.10;;
487;SDS011;16586;48.976;9.584;2023-02-28T00:54:52;198.05;;;188.57;;
487;SDS011;16586;48.976;9.584;2023-02-28T00:57:20;205.63;;;195.77;;
487;SDS011;16586;48.976;9.584;2023-02-28T00:59:47;166.60;;;158.63;;
487;SDS011;16586;48.976;9.584;2023-02-28T01:02:14;155.68;;;148.20;;
487;SDS011;16586;48.976;9.584;2023-02-28T01:04:41;132.57;;;126.18;;
487;SDS011;16586;48.976;9.584;2023-02-28T01:07:08;152.68;;;145.38;;
487;SDS011;16586;48.976;9.584;2023-02-28T01:09:34;163.20;;;155.38;;
487;SDS011;16586;48.976;9.584;2023-02-28T01:12:01;168.80;;;160.70;;
487;SDS011;16586;48.976;9.584;2023-02-28T01:14:30;128.25;;;122.05;;
487;SDS011;16586;48.976;9.584;2023-02-28T01:16:56;129.70;;;123.47;;
487;SDS011;16586;48.976;9.584;2023-02-28T01:19:23;132.20;;;125.85;;
487;SDS011;16586;48.976;9.584;2023-02-28T01:21:50;123.95;;;117.97;;
487;SDS011;16586;48.976;9.584;2023-02-28T01:24:17;144.38;;;137.48;;
487;SDS011;16586;48.976;9.584;2023-02-28T01:26:43;143.80;;;136.90;;
487;SDS011;16586;48.976;9.584;2023-02-28T01:29:10;152.90;;;145.60;;
487;SDS011;16586;48.976;9.584;2023-02-28T01:31:38;148.45;;;141.32;;
487;SDS011;16586;48.976;9.584;2023-02-28T01:34:05;164.20;;;156.35;;
487;SDS011;16586;48.976;9.584;2023-02-28T01:36:32;173.40;;;165.07;;
487;SDS011;16586;48.976;9.584;2023-02-28T01:38:58;168.70;;;160.60;;
487;SDS011;16586;48.976;9.584;2023-02-28T01:41:27;137.65;;;131.05;;
487;SDS011;16586;48.976;9.584;2023-02-28T01:44:02;167.20;;;159.20;;
487;SDS011;16586;48.976;9.584;2023-02-28T01:47:11;143.73;;;136.83;;
487;SDS011;16586;48.976;9.584;2023-02-28T01:49:38;153.15;;;145.80;;
487;SDS011;16586;48.976;9.584;2023-02-28T01:52:05;178.82;;;170.25;;
487;SDS011;16586;48.976;9.584;2023-02-28T01:54:33;183.90;;;175.10;;
487;SDS011;16586;48.976;9.584;2023-02-28T01:57:01;146.13;;;139.10;;
487;SDS011;16586;48.976;9.584;2023-02-28T01:59:32;140.30;;;133.57;;
487;SDS011;16586;48.976;9.584;2023-02-28T02:02:01;147.93;;;140.82;;
487;SDS011;16586;48.976;9.584;2023-02-28T02:04:32;193.52;;;184.25;;
487;SDS011;16586;48.976;9.584;2023-02-28T02:07:15;146.20;;;139.20;;
487;SDS011;16586;48.976;9.584;2023-02-28T02:09:42;184.73;;;175.88;;
487;SDS011;16586;48.976;9.584;2023-02-28T02:12:12;174.55;;;166.18;;
487;SDS011;16586;48.976;9.584;2023-02-28T02:14:49;150.27;;;143.07;;
487;SDS011;16586;48.976;9.584;2023-02-28T02:17:28;160.95;;;153.25;;
487;SDS011;16586;48.976;9.584;2023-02-28T02:26:01;190.05;;;180.95;;
487;SDS011;16586;48.976;9.584;2023-02-28T02:28:46;162.18;;;154.40;;
487;SDS011;16586;48.976;9.584;2023-02-28T02:31:35;150.90;;;143.68;;
487;SDS011;16586;48.976;9.584;2023-02-28T02:34:33;204.77;;;194.97;;
487;SDS011;16586;48.976;9.584;2023-02-28T02:37:21;159.93;;;152.23;;
487;SDS011;16586;48.976;9.584;2023-02-28T02:39:54;154.50;;;147.10;;
487;SDS011;16586;48.976;9.584;2023-02-28T02:42:27;165.10;;;157.20;;
487;SDS011;16586;48.976;9.584;2023-02-28T02:45:00;156.95;;;149.40;;
487;SDS011;16586;48.976;9.584;2023-02-28T02:47:32;210.32;;;200.25;;
487;SDS011;16586;48.976;9.584;2023-02-28T02:50:04;148.45;;;141.35;;
487;SDS011;16586;48.976;9.584;2023-02-28T02:52:35;151.88;;;144.57;;
487;SDS011;16586;48.976;9.584;2023-02-28T02:55:07;189.97;;;180.87;;
487;SDS011;16586;48.976;9.584;2023-02-28T02:57:36;150.65;;;143.43;;
487;SDS011;16586;48.976;9.584;2023-02-28T03:00:07;147.32;;;140.23;;
487;SDS011;16586;48.976;9.584;2023-02-28T03:02:35;177.70;;;169.20;;
487;SDS011;16586;48.976;9.584;2023-02-28T03:05:06;183.32;;;174.52;;
487;SDS011;16586;48.976;9.584;2023-02-28T03:07:40;183.32;;;174.52;;
487;SDS011;16586;48.976;9.584;2023-02-28T03:10:27;136.18;;;129.68;;
487;SDS011;16586;48.976;9.584;2023-02-28T03:12:58;157.90;;;150.32;;
487;SDS011;16586;48.976;9.584;2023-02-28T03:15:35;178.52;;;169.98;;
487;SDS011;16586;48.976;9.584;2023-02-28T03:18:08;140.50;;;133.77;;
487;SDS011;16586;48.976;9.584;2023-02-28T03:20:45;143.37;;;136.50;;
487;SDS011;16586;48.976;9.584;2023-02-28T03:23:19;165.15;;;157.25;;
487;SDS011;16586;48.976;9.584;2023-02-28T03:25:52;133.32;;;126.93;;
487;SDS011;16586;48.976;9.584;2023-02-28T03:28:28;131.35;;;125.05;;
487;SDS011;16586;48.976;9.584;2023-02-28T03:30:59;145.82;;;138.82;;
487;SDS011;16586;48.976;9.584;2023-02-28T03:33:34;155.82;;;148.35;;
487;SDS011;16586;48.976;9.584;2023-02-28T03:36:07;155.98;;;148.50;;
487;SDS011;16586;48.976;9.584;2023-02-28T03:38:35;137.43;;;130.83;;
487;SDS011;16586;48.976;9.584;2023-02-28T03:41:06;149.20;;;142.05;;
487;SDS011;16586;48.976;9.584;2023-02-28T03:43:38;148.70;;;141.60;;
487;SDS011;16586;48.976;9.584;2023-02-28T03:46:08;155.35;;;147.90;;
487;SDS011;16586;48.976;9.584;2023-02-28T03:48:38;160.52;;;152.82;;
487;SDS011;16586;48.976;9.584;2023-02-28T03:51:13;197.23;;;187.77;;
487;SDS011;16586;48.976;9.584;2023-02-28T03:53:44;143.98;;;137.07;;
487;SDS011;16586;48.976;9.584;2023-02-28T03:56:13;177.68;;;169.18;;
487;SDS011;16586;48.976;9.584;2023-02-28T03:58:43;188.98;;;179.93;;
487;SDS011;16586;48.976;9.584;2023-02-28T04:01:16;174.67;;;166.30;;
487;SDS011;16586;48.976;9.584;2023-02-28T04:03:47;212.95;;;202.75;;
487;SDS011;16586;48.976;9.584;2023-02-28T04:06:16;148.30;;;141.20;;
487;SDS011;16586;48.976;9.584;2023-02-28T04:08:46;171.18;;;162.98;;
487;SDS011;16586;48.976;9.584;2023-02-28T04:11:16;211.35;;;201.23;;
487;SDS011;16586;48.976;9.584;2023-02-28T04:13:47;202.05;;;192.38;;
487;SDS011;16586;48.976;9.584;2023-02-28T04:16:14;183.18;;;174.40;;
487;SDS011;16586;48.976;9.584;2023-02-28T04:18:41;171.25;;;163.05;;
487;SDS011;16586;48.976;9.584;2023-02-28T04:21:09;194.13;;;184.82;;
487;SDS011;16586;48.976;9.584;2023-02-28T04:23:37;184.35;;;175.52;;
487;SDS011;16586;48.976;9.584;2023-02-28T04:26:04;184.88;;;176.02;;
487;SDS011;16586;48.976;9.584;2023-02-28T04:28:31;224.10;;;213.40;;
487;SDS011;16586;48.976;9.584;2023-02-28T04:30:59;167.07;;;159.07;;
487;SDS011;16586;48.976;9.584;2023-02-28T04:33:29;185.13;;;176.25;;
487;SDS011;16586;48.976;9.584;2023-02-28T04:35:57;202.20;;;192.50;;
487;SDS011;16586;48.976;9.584;2023-02-28T04:38:27;231.02;;;219.98;;
487;SDS011;16586;48.976;9.584;2023-02-28T04:40:57;215.50;;;205.17;;
487;SDS011;16586;48.976;9.584;2023-02-28T04:43:25;200.23;;;190.63;;
487;SDS011;16586;48.976;9.584;2023-02-28T04:45:52;170.75;;;162.55;;
487;SDS011;16586;48.976;9.584;2023-02-28T04:48:21;191.05;;;181.90;;
487;SDS011;16586;48.976;9.584;2023-02-28T04:50:48;222.57;;;211.93;;
487;SDS011;16586;48.976;9.584;2023-02-28T04:53:15;208.57;;;198.60;;
487;SDS011;16586;48.976;9.584;2023-02-28T04:55:42;229.43;;;218.47;;
487;SDS011;16586;48.976;9.584;2023-02-28T04:58:10;242.10;;;230.50;;
487;SDS011;16586;48.976;9.584;2023-02-28T05:00:39;214.07;;;203.85;;
487;SDS011;16586;48.976;9.584;2023-02-28T05:03:07;236.15;;;224.88;;
487;SDS011;16586;48.976;9.584;2023-02-28T05:05:34;259.52;;;247.15;;
487;SDS011;16586;48.976;9.584;2023-02-28T05:08:01;208.73;;;198.73;;
487;SDS011;16586;48.976;9.584;2023-02-28T05:10:28;250.15;;;238.20;;
487;SDS011;16586;48.976;9.584;2023-02-28T05:12:55;214.60;;;204.35;;
487;SDS011;16586;48.976;9.584;2023-02-28T05:15:23;224.82;;;214.05;;
487;SDS011;16586;48.976;9.584;2023-02-28T05:17:53;239.33;;;227.87;;
487;SDS011;16586;48.976;9.584;2023-02-28T05:20:19;229.70;;;218.70;;
487;SDS011;16586;48.976;9.584;2023-02-28T05:22:47;252.30;;;240.25;;
487;SDS011;16586;48.976;9.584;2023-02-28T05:25:15;214.32;;;204.05;;
487;SDS011;16586;48.976;9.584;2023-02-28T05:27:44;256.63;;;244.35;;
487;SDS011;16586;48.976;9.584;2023-02-28T05:30:11;217.18;;;206.77;;
487;SDS011;16586;48.976;9.584;2023-02-28T05:32:39;261.40;;;248.90;;
487;SDS011;16586;48.976;9.584;2023-02-28T05:35:08;222.25;;;211.60;;
487;SDS011;16586;48.976;9.584;2023-02-28T05:37:35;220.33;;;209.77;;
487;SDS011;16586;48.976;9.584;2023-02-28T05:40:03;217.63;;;207.23;;
487;SDS011;16586;48.976;9.584;2023-02-28T05:42:32;224.23;;;213.50;;
487;SDS011;16586;48.976;9.584;2023-02-28T05:44:59;244.80;;;233.07;;
487;SDS011;16586;48.976;9.584;2023-02-28T05:47:25;280.52;;;267.10;;
487;SDS011;16586;48.976;9.584;2023-02-28T05:49:53;261.92;;;249.43;;
487;SDS011;16586;48.976;9.584;2023-02-28T05:52:20;224.50;;;213.77;;
487;SDS011;16586;48.976;9.584;2023-02-28T05:54:48;275.20;;;262.03;;
487;SDS011;16586;48.976;9.584;2023-02-28T05:57:15;272.07;;;259.07;;
487;SDS011;16586;48.976;9.584;2023-02-28T05:59:42;241.88;;;230.30;;
487;SDS011;16586;48.976;9.584;2023-02-28T06:02:09;259.65;;;247.27;;
487;SDS011;16586;48.976;9.584;2023-02-28T06:04:38;229.55;;;218.55;;
487;SDS011;16586;48.976;9.584;2023-02-28T06:07:07;232.60;;;221.48;;
487;SDS011;16586;48.976;9.584;2023-02-28T06:09:34;243.57;;;231.93;;
487;SDS011;16586;48.976;9.584;2023-02-28T06:12:03;231.23;;;220.18;;
487;SDS011;16586;48.976;9.584;2023-02-28T06:14:32;240.40;;;228.90;;
487;SDS011;16586;48.976;9.584;2023-02-28T06:17:00;240.85;;;229.35;;
487;SDS011;16586;48.976;9.584;2023-02-28T06:19:27;250.80;;;238.80;;
487;SDS011;16586;48.976;9.584;2023-02-28T06:21:55;199.47;;;189.93;;
487;SDS011;16586;48.976;9.584;2023-02-28T06:24:27;307.63;;;292.95;;
487;SDS011;16586;48.976;9.584;2023-02-28T06:26:57;254.77;;;242.57;;
487;SDS011;16586;48.976;9.584;2023-02-28T06:29:31;282.58;;;269.08;;
487;SDS011;16586;48.976;9.584;2023-02-28T06:32:03;287.92;;;274.17;;
487;SDS011;16586;48.976;9.584;2023-02-28T06:34:31;241.50;;;229.95;;
487;SDS011;16586;48.976;9.584;2023-02-28T06:37:04;291.52;;;277.60;;
487;SDS011;16586;48.976;9.584;2023-02-28T06:39:40;278.20;;;264.90;;
487;SDS011;16586;48.976;9.584;2023-02-28T06:42:09;297.98;;;283.73;;
487;SDS011;16586;48.976;9.584;2023-02-28T06:44:38;264.15;;;251.52;;
487;SDS011;16586;48.976;9.584;2023-02-28T06:47:05;282.77;;;269.27;;
487;SDS011;16586;48.976;9.584;2023-02-28T06:49:33;301.83;;;287.40;;
487;SDS011;16586;48.976;9.584;2023-02-28T06:52:01;263.80;;;251.20;;
487;SDS011;16586;48.976;9.584;2023-02-28T06:54:29;300.88;;;286.50;;
487;SDS011;16586;48.976;9.584;2023-02-28T06:57:08;326.03;;;310.47;;
487;SDS011;16586;48.976;9.584;2023-02-28T07:00:00;282.95;;;269.42;;
487;SDS011;16586;48.976;9.584;2023-02-28T07:02:32;344.35;;;327.90;;
487;SDS011;16586;48.976;9.584;2023-02-28T07:05:00;287.08;;;273.35;;
487;SDS011;16586;48.976;9.584;2023-02-28T07:07:27;322.02;;;306.63;;
487;SDS011;16586;48.976;9.584;2023-02-28T07:09:53;275.88;;;262.67;;
487;SDS011;16586;48.976;9.584;2023-02-28T07:12:21;299.23;;;284.92;;
487;SDS011;16586;48.976;9.584;2023-02-28T07:14:48;291.80;;;277.87;;
487;SDS011;16586;48.976;9.584;2023-02-28T07:17:15;351.23;;;334.42;;
487;SDS011;16586;48.976;9.584;2023-02-28T07:19:42;324.65;;;309.15;;
487;SDS011;16586;48.976;9.584;2023-02-28T07:22:09;296.58;;;282.42;;
487;SDS011;16586;48.976;9.584;2023-02-28T07:24:36;328.83;;;313.13;;
487;SDS011;16586;48.976;9.584;2023-02-28T07:27:03;342.88;;;326.50;;
487;SDS011;16586;48.976;9.584;2023-02-28T07:29:32;327.77;;;312.10;;
487;SDS011;16586;48.976;9.584;2023-02-28T07:31:59;322.50;;;307.08;;
487;SDS011;16586;48.976;9.584;2023-02-28T07:34:29;376.95;;;358.95;;
487;SDS011;16586;48.976;9.584;2023-02-28T07:39:56;337.93;;;321.80;;
487;SDS011;16586;48.976;9.584;2023-02-28T07:42:32;387.10;;;368.60;;
487;SDS011;16586;48.976;9.584;2023-02-28T07:45:03;406.27;;;386.88;;
487;SDS011;16586;48.976;9.584;2023-02-28T07:47:32;365.65;;;348.17;;
487;SDS011;16586;48.976;9.584;2023-02-28T07:50:02;350.15;;;333.45;;
487;SDS011;16586;48.976;9.584;2023-02-28T07:52:31;357.00;;;339.95;;
487;SDS011;16586;48.976;9.584;2023-02-28T07:54:58;350.63;;;333.90;;
487;SDS011;16586;48.976;9.584;2023-02-28T07:57:25;325.33;;;309.80;;
487;SDS011;16586;48.976;9.584;2023-02-28T07:59:51;306.70;;;292.05;;
487;SDS011;16586;48.976;9.584;2023-02-28T08:02:34;328.37;;;312.70;;
487;SDS011;16586;48.976;9.584;2023-02-28T08:05:01;299.58;;;285.25;;
487;SDS011;16586;48.976;9.584;2023-02-28T08:07:32;314.63;;;299.60;;
487;SDS011;16586;48.976;9.584;2023-02-28T08:09:59;278.65;;;265.33;;
487;SDS011;16586;48.976;9.584;2023-02-28T08:12:26;316.27;;;301.15;;
487;SDS011;16586;48.976;9.584;2023-02-28T08:14:53;355.00;;;338.05;;
487;SDS011;16586;48.976;9.584;2023-02-28T08:17:20;369.25;;;351.63;;
487;SDS011;16586;48.976;9.584;2023-02-28T08:19:48;418.60;;;398.60;;
487;SDS011;16586;48.976;9.584;2023-02-28T08:22:15;401.85;;;382.65;;
487;SDS011;16586;48.976;9.584;2023-02-28T08:24:42;419.10;;;399.10;;
487;SDS011;16586;48.976;9.584;2023-02-28T08:27:09;442.42;;;421.33;;
487;SDS011;16586;48.976;9.584;2023-02-28T08:29:36;424.52;;;404.25;;
487;SDS011;16586;48.976;9.584;2023-02-28T08:32:03;411.15;;;391.55;;
487;SDS011;16586;48.976;9.584;2023-02-28T08:34:31;423.08;;;402.90;;
487;SDS011;16586;48.976;9.584;2023-02-28T08:36:59;434.48;;;413.75;;
487;SDS011;16586;48.976;9.584;2023-02-28T08:39:29;454.38;;;432.67;;
487;SDS011;16586;48.976;9.584;2023-02-28T08:41:56;437.80;;;416.90;;
487;SDS011;16586;48.976;9.584;2023-02-28T08:44:23;483.52;;;460.45;;
487;SDS011;16586;48.976;9.584;2023-02-28T08:46:52;485.20;;;462.05;;
487;SDS011;16586;48.976;9.584;2023-02-28T08:49:19;464.63;;;442.45;;
487;SDS011;16586;48.976;9.584;2023-02-28T08:51:45;453.02;;;431.42;;
487;SDS011;16586;48.976;9.584;2023-02-28T08:54:14;428.70;;;408.23;;
487;SDS011;16586;48.976;9.584;2023-02-28T08:56:44;430.52;;;409.98;;
487;SDS011;16586;48.976;9.584;2023-02-28T08:59:11;433.58;;;412.88;;
487;SDS011;16586;48.976;9.584;2023-02-28T09:01:38;400.45;;;381.33;;
487;SDS011;16586;48.976;9.584;2023-02-28T09:04:06;412.90;;;393.17;;
487;SDS011;16586;48.976;9.584;2023-02-28T09:06:33;378.05;;;360.00;;
487;SDS011;16586;48.976;9.584;2023-02-28T09:09:00;383.80;;;365.47;;
487;SDS011;16586;48.976;9.584;2023-02-28T09:11:30;334.52;;;318.52;;
487;SDS011;16586;48.976;9.584;2023-02-28T09:13:57;344.90;;;328.43;;
487;SDS011;16586;48.976;9.584;2023-02-28T09:16:25;366.53;;;349.00;;
487;SDS011;16586;48.976;9.584;2023-02-28T09:18:52;387.42;;;368.95;;
487;SDS011;16586;48.976;9.584;2023-02-28T09:21:19;408.25;;;388.75;;
487;SDS011;16586;48.976;9.584;2023-02-28T09:23:46;411.83;;;392.17;;
487;SDS011;16586;48.976;9.584;2023-02-28T09:26:15;433.40;;;412.73;;
487;SDS011;16586;48.976;9.584;2023-02-28T09:28:43;435.77;;;414.98;;
487;SDS011;16586;48.976;9.584;2023-02-28T09:31:11;428.33;;;407.88;;
487;SDS011;16586;48.976;9.584;2023-02-28T09:33:39;435.63;;;414.83;;
487;SDS011;16586;48.976;9.584;2023-02-28T09:36:06;474.93;;;452.27;;
487;SDS011;16586;48.976;9.584;2023-02-28T09:38:34;517.22;;;492.55;;
487;SDS011;16586;48.976;9.584;2023-02-28T09:41:02;506.13;;;481.95;;
487;SDS011;16586;48.976;9.584;2023-02-28T09:43:37;499.10;;;475.27;;
487;SDS011;16586;48.976;9.584;2023-02-28T09:46:11;502.58;;;478.60;;
487;SDS011;16586;48.976;9.584;2023-02-28T09:48:49;522.28;;;497.35;;
487;SDS011;16586;48.976;9.584;2023-02-28T09:51:23;508.13;;;483.88;;
487;SDS011;16586;48.976;9.584;2023-02-28T09:53:56;515.10;;;490.52;;
487;SDS011;16586;48.976;9.584;2023-02-28T09:56:24;522.88;;;497.92;;
487;SDS011;16586;48.976;9.584;2023-02-28T09:58:56;552.03;;;525.70;;
487;SDS011;16586;48.976;9.584;2023-02-28T10:01:31;536.13;;;510.52;;
487;SDS011;16586;48.976;9.584;2023-02-28T10:04:03;565.28;;;538.30;;
487;SDS011;16586;48.976;9.584;2023-02-28T10:06:32;551.95;;;525.63;;
487;SDS011;16586;48.976;9.584;2023-02-28T10:09:03;573.33;;;545.97;;
487;SDS011;16586;48.976;9.584;2023-02-28T10:11:35;584.23;;;556.37;;
487;SDS011;16586;48.976;9.584;2023-02-28T10:14:04;544.83;;;518.83;;
487;SDS011;16586;48.976;9.584;2023-02-28T10:16:38;564.47;;;537.55;;
487;SDS011;16586;48.976;9.584;2023-02-28T10:19:11;601.95;;;573.22;;
487;SDS011;16586;48.976;9.584;2023-02-28T10:21:41;618.38;;;588.88;;
487;SDS011;16586;48.976;9.584;2023-02-28T10:24:16;602.55;;;573.80;;
487;SDS011;16586;48.976;9.584;2023-02-28T10:26:46;597.90;;;569.40;;
487;SDS011;16586;48.976;9.584;2023-02-28T10:29:23;603.35;;;574.55;;
487;SDS011;16586;48.976;9.584;2023-02-28T10:32:06;615.17;;;585.80;;
487;SDS011;16586;48.976;9.584;2023-02-28T10:34:33;626.97;;;597.08;;
487;SDS011;16586;48.976;9.584;2023-02-28T10:37:00;620.83;;;591.22;;
487;SDS011;16586;48.976;9.584;2023-02-28T10:39:46;624.72;;;594.92;;
487;SDS011;16586;48.976;9.584;2023-02-28T10:42:33;604.87;;;576.00;;
487;SDS011;16586;48.976;9.584;2023-02-28T10:45:04;514.97;;;490.40;;
487;SDS011;16586;48.976;9.584;2023-02-28T10:47:34;564.05;;;537.15;;
487;SDS011;16586;48.976;9.584;2023-02-28T10:50:08;511.05;;;486.65;;
487;SDS011;16586;48.976;9.584;2023-02-28T10:52:52;544.60;;;518.60;;
487;SDS011;16586;48.976;9.584;2023-02-28T10:55:21;553.08;;;526.70;;
487;SDS011;16586;48.976;9.584;2023-02-28T10:57:50;536.80;;;511.20;;
487;SDS011;16586;48.976;9.584;2023-02-28T11:00:18;442.52;;;421.40;;
487;SDS011;16586;48.976;9.584;2023-02-28T11:02:48;449.75;;;428.27;;
487;SDS011;16586;48.976;9.584;2023-02-28T11:05:24;588.30;;;560.23;;
487;SDS011;16586;48.976;9.584;2023-02-28T11:07:55;503.65;;;479.65;;
487;SDS011;16586;48.976;9.584;2023-02-28T11:10:25;66.18;;;62.97;;
487;SDS011;16586;48.976;9.584;2023-02-28T11:12:55;83.50;;;79.47;;
487;SDS011;16586;48.976;9.584;2023-02-28T11:15:27;98.72;;;93.97;;
487;SDS011;16586;48.976;9.584;2023-02-28T11:18:18;132.18;;;125.82;;
487;SDS011;16586;48.976;9.584;2023-02-28T11:20:49;165.38;;;157.48;;
487;SDS011;16586;48.976;9.584;2023-02-28T11:23:19;139.82;;;133.13;;
487;SDS011;16586;48.976;9.584;2023-02-28T11:25:47;586.40;;;558.43;;
487;SDS011;16586;48.976;9.584;2023-02-28T11:28:23;578.93;;;551.30;;
487;SDS011;16586;48.976;9.584;2023-02-28T11:31:03;518.33;;;493.60;;
487;SDS011;16586;48.976;9.584;2023-02-28T11:33:46;448.50;;;427.10;;
487;SDS011;16586;48.976;9.584;2023-02-28T11:36:17;405.88;;;386.50;;
487;SDS011;16586;48.976;9.584;2023-02-28T11:38:46;413.75;;;394.00;;
487;SDS011;16586;48.976;9.584;2023-02-28T11:41:21;332.23;;;316.35;;
487;SDS011;16586;48.976;9.584;2023-02-28T11:44:20;386.38;;;367.92;;
487;SDS011;16586;48.976;9.584;2023-02-28T11:52:10;686.60;;;653.85;;
487;SDS011;16586;48.976;9.584;2023-02-28T11:57:27;777.92;;;740.85;;
487;SDS011;16586;48.976;9.584;2023-02-28T12:00:19;815.17;;;776.30;;
487;SDS011;16586;48.976;9.584;2023-02-28T12:03:06;750.35;;;714.58;;
487;SDS011;16586;48.976;9.584;2023-02-28T12:05:45;717.83;;;683.60;;
487;SDS011;16586;48.976;9.584;2023-02-28T12:08:23;701.60;;;668.13;;
487;SDS011;16586;48.976;9.584;2023-02-28T12:11:06;697.60;;;664.33;;
487;SDS011;16586;48.976;9.584;2023-02-28T12:13:43;613.15;;;583.90;;
487;SDS011;16586;48.976;9.584;2023-02-28T12:16:20;560.80;;;534.03;;
487;SDS011;16586;48.976;9.584;2023-02-28T12:19:07;513.88;;;489.38;;
487;SDS011;16586;48.976;9.584;2023-02-28T12:22:00;453.97;;;432.27;;
487;SDS011;16586;48.976;9.584;2023-02-28T12:24:57;536.17;;;510.60;;
487;SDS011;16586;48.976;9.584;2023-02-28T12:27:47;474.40;;;451.77;;
487;SDS011;16586;48.976;9.584;2023-02-28T12:30:16;419.02;;;399.02;;
487;SDS011;16586;48.976;9.584;2023-02-28T12:32:45;417.70;;;397.77;;
487;SDS011;16586;48.976;9.584;2023-02-28T12:35:22;347.52;;;330.92;;
487;SDS011;16586;48.976;9.584;2023-02-28T12:37:54;343.52;;;327.13;;
487;SDS011;16586;48.976;9.584;2023-02-28T12:40:26;288.90;;;275.10;;
487;SDS011;16586;48.976;9.584;2023-02-28T12:42:59;252.52;;;240.45;;
487;SDS011;16586;48.976;9.584;2023-02-28T12:45:31;208.60;;;198.60;;
487;SDS011;16586;48.976;9.584;2023-02-28T12:48:08;164.18;;;156.32;;
487;SDS011;16586;48.976;9.584;2023-02-28T12:50:38;163.27;;;155.45;;
487;SDS011;16586;48.976;9.584;2023-02-28T12:53:08;178.18;;;169.68;;
487;SDS011;16586;48.976;9.584;2023-02-28T12:55:41;178.45;;;169.90;;
487;SDS011;16586;48.976;9.584;2023-02-28T12:58:13;185.38;;;176.48;;
487;SDS011;16586;48.976;9.584;2023-02-28T13:00:48;179.13;;;170.52;;
487;SDS011;16586;48.976;9.584;2023-02-28T13:03:42;187.07;;;178.13;;
487;SDS011;16586;48.976;9.584;2023-02-28T13:06:23;185.75;;;176.85;;
487;SDS011;16586;48.976;9.584;2023-02-28T13:09:08;191.18;;;182.02;;
487;SDS011;16586;48.976;9.584;2023-02-28T13:11:42;190.77;;;181.63;;
487;SDS011;16586;48.976;9.584;2023-02-28T13:14:19;187.07;;;178.13;;
487;SDS011;16586;48.976;9.584;2023-02-28T13:19:38;337.00;;;320.90;;
487;SDS011;16586;48.976;9.584;2023-02-28T13:22:15;311.63;;;296.73;;
487;SDS011;16586;48.976;9.584;2023-02-28T13:24:45;300.88;;;286.50;;
487;SDS011;16586;48.976;9.584;2023-02-28T13:27:23;358.38;;;341.27;;
487;SDS011;16586;48.976;9.584;2023-02-28T13:29:58;359.60;;;342.40;;
487;SDS011;16586;48.976;9.584;2023-02-28T13:32:28;348.85;;;332.20;;
487;SDS011;16586;48.976;9.584;2023-02-28T13:38:16;399.75;;;380.65;;
487;SDS011;16586;48.976;9.584;2023-02-28T13:40:48;407.35;;;387.90;;
487;SDS011;16586;48.976;9.584;2023-02-28T13:43:17;430.63;;;410.07;;
487;SDS011;16586;48.976;9.584;2023-02-28T13:48:35;419.73;;;399.73;;
487;SDS011;16586;48.976;9.584;2023-02-28T13:54:07;436.67;;;415.83;;
487;SDS011;16586;48.976;9.584;2023-02-28T13:57:01;466.92;;;444.65;;
487;SDS011;16586;48.976;9.584;2023-02-28T13:59:46;421.40;;;401.30;;
487;SDS011;16586;48.976;9.584;2023-02-28T14:02:30;469.00;;;446.63;;
487;SDS011;16586;48.976;9.584;2023-02-28T14:05:12;492.02;;;468.55;;
487;SDS011;16586;48.976;9.584;2023-02-28T14:07:43;523.78;;;498.77;;
487;SDS011;16586;48.976;9.584;2023-02-28T14:10:24;555.65;;;529.15;;
487;SDS011;16586;48.976;9.584;2023-02-28T14:12:58;501.83;;;477.90;;
487;SDS011;16586;48.976;9.584;2023-02-28T14:15:40;431.95;;;411.35;;
487;SDS011;16586;48.976;9.584;2023-02-28T14:18:17;406.20;;;386.83;;
487;SDS011;16586;48.976;9.584;2023-02-28T14:21:01;504.33;;;480.27;;
487;SDS011;16586;48.976;9.584;2023-02-28T14:23:39;546.77;;;520.67;;
487;SDS011;16586;48.976;9.584;2023-02-28T14:26:38;527.08;;;501.92;;
487;SDS011;16586;48.976;9.584;2023-02-28T14:29:42;447.30;;;425.95;;
487;SDS011;16586;48.976;9.584;2023-02-28T14:32:35;449.05;;;427.63;;
487;SDS011;16586;48.976;9.584;2023-02-28T14:35:13;513.10;;;488.60;;
487;SDS011;16586;48.976;9.584;2023-02-28T14:37:48;491.52;;;468.05;;
487;SDS011;16586;48.976;9.584;2023-02-28T14:40:16;479.87;;;456.97;;
487;SDS011;16586;48.976;9.584;2023-02-28T14:42:47;420.45;;;400.38;;
487;SDS011;16586;48.976;9.584;2023-02-28T14:45:21;403.80;;;384.55;;
487;SDS011;16586;48.976;9.584;2023-02-28T14:47:51;436.65;;;415.83;;
487;SDS011;16586;48.976;9.584;2023-02-28T14:50:19;445.45;;;424.17;;
487;SDS011;16586;48.976;9.584;2023-02-28T14:52:49;415.48;;;395.67;;
487;SDS011;16586;48.976;9.584;2023-02-28T14:55:20;402.20;;;383.00;;
487;SDS011;16586;48.976;9.584;2023-02-28T14:57:52;448.13;;;426.73;;
487;SDS011;16586;48.976;9.584;2023-02-28T15:00:22;426.65;;;406.25;;
487;SDS011;16586;48.976;9.584;2023-02-28T15:02:52;395.08;;;376.20;;
487;SDS011;16586;48.976;9.584;2023-02-28T15:05:26;333.27;;;317.35;;
487;SDS011;16586;48.976;9.584;2023-02-28T15:08:06;383.98;;;365.65;;
487;SDS011;16586;48.976;9.584;2023-02-28T15:10:37;362.73;;;345.42;;
487;SDS011;16586;48.976;9.584;2023-02-28T15:13:06;276.83;;;263.60;;
487;SDS011;16586;48.976;9.584;2023-02-28T15:15:38;263.33;;;250.75;;